Terminal Aerodrome Forecast
Issued by NWS Riverton, WY

Home | Current Version | Previous Version | Text Only | Print | Product List | Glossary On
Versions: 1 2 3 4 5 6 7 8 9 10 11 12 13 14 15
000
FTUS45 KRIW 282300
TAFRIW
TAF
KRIW 282324Z 2900/2924 15007KT P6SM SKC
     FM290200 30010KT P6SM FEW100
     FM290700 29007KT P6SM SCT100 BKN150
     FM292000 VRB10G15KT P6SM VCSH SCT070 BKN120=

USA.gov is the U.S. government's official web portal to all federal, state and local government web resources and services.